Accueil
METAR-TAF:

METAR-TAF

Aéroports :

Cassel, Allemagne

latitude: 51-24N, longitude: 009-23E, altitude: 277 m

Observation

Le bulletin a été fait il y a 14 minutes, à 05:20 UTC
Vent 4 kt de ouest, variant entre sud-ouest et ouest/nord-ouest
Température 11°C
Humidité 82%
Pression 1022 hPa
Visibilité 10 km ou plus
Quelques nuages à une hauteur de 2600 ft
Nuages fragmentés à une hauteur de 3600 ft

METAR: EDVK 240520Z 27004KT 220V290 9999 FEW026 BKN036 11/08 Q1022

Heure: 07:34 (05:34 UTC)

Prévision

Le bulletin a été fait il y a 9 heures et 34 minutes, à 20:00 UTC
Prévision valable du 23 à 21 UTC au 24 à 03 UTC
Vent 10 kt de nord-ouest
Visibilité 10 km ou plus
Nuages fragmentés à une hauteur de 4000 ft
Evoluant progressivement
du 23 à 21 UTC au 23 à 23 UTC
Vent 5 kt de ouest/nord-ouest

TAF: EDVK 232000Z 2321/2403 32010KT 9999 BKN040 BECMG 2321/2323 29005KT

Observations et prévisions météorologiques de plus de 4000 aéroports (messages METAR et TAF).

Les stations disponibles sont représentées par des disques jaunes et rouges sur la carte.

Passer la souris dessus pour voir le nom de la station.

Cliquer dessus pour voir les observations et prévisions météorologiques.

Pour changer de carte: cliquez sur les boutons verts avec une croix noire pour zoomer, sur le bouton vert avec un tiret pour effectuer un zoom arrière, ou sur les flèches vertes pour les cartes adjacentes.


METAR-TAF: